sensor_id;sensor_type;location;lat;lon;timestamp;P1;durP1;ratioP1;P2;durP2;ratioP2
49041;SDS011;34859;51.608;11.462;2022-10-18T00:02:19;7.35;;;3.40;;
49041;SDS011;34859;51.608;11.462;2022-10-18T00:05:04;4.90;;;3.40;;
49041;SDS011;34859;51.608;11.462;2022-10-18T00:07:48;5.50;;;3.50;;
49041;SDS011;34859;51.608;11.462;2022-10-18T00:10:32;5.30;;;3.53;;
49041;SDS011;34859;51.608;11.462;2022-10-18T00:13:16;7.68;;;3.70;;
49041;SDS011;34859;51.608;11.462;2022-10-18T00:16:02;7.78;;;3.33;;
49041;SDS011;34859;51.608;11.462;2022-10-18T00:18:48;3.58;;;3.38;;
49041;SDS011;34859;51.608;11.462;2022-10-18T00:21:32;5.70;;;3.28;;
49041;SDS011;34859;51.608;11.462;2022-10-18T00:24:16;4.67;;;3.47;;
49041;SDS011;34859;51.608;11.462;2022-10-18T00:27:00;4.25;;;3.85;;
49041;SDS011;34859;51.608;11.462;2022-10-18T00:29:45;4.78;;;3.45;;
49041;SDS011;34859;51.608;11.462;2022-10-18T00:32:29;5.00;;;3.67;;
49041;SDS011;34859;51.608;11.462;2022-10-18T00:35:13;4.32;;;4.03;;
49041;SDS011;34859;51.608;11.462;2022-10-18T00:37:57;6.45;;;3.92;;
49041;SDS011;34859;51.608;11.462;2022-10-18T00:40:42;4.00;;;3.60;;
49041;SDS011;34859;51.608;11.462;2022-10-18T00:43:26;9.80;;;4.15;;
49041;SDS011;34859;51.608;11.462;2022-10-18T00:46:10;5.40;;;3.93;;
49041;SDS011;34859;51.608;11.462;2022-10-18T00:48:54;5.07;;;3.80;;
49041;SDS011;34859;51.608;11.462;2022-10-18T00:51:41;4.25;;;3.78;;
49041;SDS011;34859;51.608;11.462;2022-10-18T00:54:31;4.88;;;3.10;;
49041;SDS011;34859;51.608;11.462;2022-10-18T00:57:18;4.10;;;3.70;;
49041;SDS011;34859;51.608;11.462;2022-10-18T01:00:03;4.60;;;4.18;;
49041;SDS011;34859;51.608;11.462;2022-10-18T01:02:52;7.57;;;3.63;;
49041;SDS011;34859;51.608;11.462;2022-10-18T01:05:38;12.93;;;4.15;;
49041;SDS011;34859;51.608;11.462;2022-10-18T01:11:17;10.37;;;4.30;;
49041;SDS011;34859;51.608;11.462;2022-10-18T01:14:34;5.95;;;3.78;;
49041;SDS011;34859;51.608;11.462;2022-10-18T01:20:22;11.55;;;5.15;;
49041;SDS011;34859;51.608;11.462;2022-10-18T01:29:21;9.40;;;6.43;;
49041;SDS011;34859;51.608;11.462;2022-10-18T01:32:18;10.63;;;6.47;;
49041;SDS011;34859;51.608;11.462;2022-10-18T01:35:10;8.32;;;7.63;;
49041;SDS011;34859;51.608;11.462;2022-10-18T01:37:58;9.23;;;8.32;;
49041;SDS011;34859;51.608;11.462;2022-10-18T01:40:46;8.98;;;8.18;;
49041;SDS011;34859;51.608;11.462;2022-10-18T01:43:32;9.85;;;8.85;;
49041;SDS011;34859;51.608;11.462;2022-10-18T01:46:19;10.43;;;9.55;;
49041;SDS011;34859;51.608;11.462;2022-10-18T01:49:06;11.73;;;9.80;;
49041;SDS011;34859;51.608;11.462;2022-10-18T01:51:51;13.75;;;10.55;;
49041;SDS011;34859;51.608;11.462;2022-10-18T01:54:36;13.48;;;11.15;;
49041;SDS011;34859;51.608;11.462;2022-10-18T01:57:37;15.20;;;11.10;;
49041;SDS011;34859;51.608;11.462;2022-10-18T02:00:27;19.75;;;12.43;;
49041;SDS011;34859;51.608;11.462;2022-10-18T02:03:23;14.13;;;12.32;;
49041;SDS011;34859;51.608;11.462;2022-10-18T02:09:32;13.35;;;11.35;;
49041;SDS011;34859;51.608;11.462;2022-10-18T02:12:14;12.55;;;10.55;;
49041;SDS011;34859;51.608;11.462;2022-10-18T02:15:00;12.32;;;11.07;;
49041;SDS011;34859;51.608;11.462;2022-10-18T02:17:46;12.10;;;10.88;;
49041;SDS011;34859;51.608;11.462;2022-10-18T02:20:30;14.60;;;11.90;;
49041;SDS011;34859;51.608;11.462;2022-10-18T02:23:15;13.45;;;11.55;;
49041;SDS011;34859;51.608;11.462;2022-10-18T02:26:05;14.55;;;11.70;;
49041;SDS011;34859;51.608;11.462;2022-10-18T02:28:50;14.50;;;12.45;;
49041;SDS011;34859;51.608;11.462;2022-10-18T02:37:22;12.57;;;11.32;;
49041;SDS011;34859;51.608;11.462;2022-10-18T02:40:08;13.30;;;12.02;;
49041;SDS011;34859;51.608;11.462;2022-10-18T02:45:38;12.85;;;11.60;;
49041;SDS011;34859;51.608;11.462;2022-10-18T02:48:23;12.30;;;11.10;;
49041;SDS011;34859;51.608;11.462;2022-10-18T02:51:07;14.37;;;10.63;;
49041;SDS011;34859;51.608;11.462;2022-10-18T02:53:51;9.83;;;9.03;;
49041;SDS011;34859;51.608;11.462;2022-10-18T02:56:35;8.77;;;7.95;;
49041;SDS011;34859;51.608;11.462;2022-10-18T02:59:19;8.77;;;7.93;;
49041;SDS011;34859;51.608;11.462;2022-10-18T03:02:04;10.33;;;8.10;;
49041;SDS011;34859;51.608;11.462;2022-10-18T03:04:48;9.68;;;8.88;;
49041;SDS011;34859;51.608;11.462;2022-10-18T03:07:32;8.35;;;7.65;;
49041;SDS011;34859;51.608;11.462;2022-10-18T03:10:16;7.97;;;7.28;;
49041;SDS011;34859;51.608;11.462;2022-10-18T03:13:00;9.40;;;8.50;;
49041;SDS011;34859;51.608;11.462;2022-10-18T03:15:44;8.98;;;8.20;;
49041;SDS011;34859;51.608;11.462;2022-10-18T03:21:13;8.52;;;7.68;;
49041;SDS011;34859;51.608;11.462;2022-10-18T03:23:57;10.40;;;8.20;;
49041;SDS011;34859;51.608;11.462;2022-10-18T03:26:42;8.13;;;7.43;;
49041;SDS011;34859;51.608;11.462;2022-10-18T03:29:26;8.05;;;7.38;;
49041;SDS011;34859;51.608;11.462;2022-10-18T03:32:10;8.90;;;8.02;;
49041;SDS011;34859;51.608;11.462;2022-10-18T03:34:54;8.90;;;8.02;;
49041;SDS011;34859;51.608;11.462;2022-10-18T03:37:38;9.55;;;8.68;;
49041;SDS011;34859;51.608;11.462;2022-10-18T03:40:22;9.23;;;8.43;;
49041;SDS011;34859;51.608;11.462;2022-10-18T03:43:06;8.70;;;8.00;;
49041;SDS011;34859;51.608;11.462;2022-10-18T03:45:50;8.95;;;8.15;;
49041;SDS011;34859;51.608;11.462;2022-10-18T03:48:34;8.63;;;7.75;;
49041;SDS011;34859;51.608;11.462;2022-10-18T03:51:18;11.27;;;7.83;;
49041;SDS011;34859;51.608;11.462;2022-10-18T03:54:02;9.82;;;8.82;;
49041;SDS011;34859;51.608;11.462;2022-10-18T03:56:47;10.30;;;9.30;;
49041;SDS011;34859;51.608;11.462;2022-10-18T03:59:31;11.55;;;9.90;;
49041;SDS011;34859;51.608;11.462;2022-10-18T04:02:15;10.57;;;9.60;;
49041;SDS011;34859;51.608;11.462;2022-10-18T04:04:59;11.37;;;10.27;;
49041;SDS011;34859;51.608;11.462;2022-10-18T04:07:43;9.80;;;9.00;;
49041;SDS011;34859;51.608;11.462;2022-10-18T04:10:27;10.40;;;9.32;;
49041;SDS011;34859;51.608;11.462;2022-10-18T04:13:12;14.93;;;10.27;;
49041;SDS011;34859;51.608;11.462;2022-10-18T04:15:56;10.05;;;9.20;;
49041;SDS011;34859;51.608;11.462;2022-10-18T04:18:40;11.53;;;8.93;;
49041;SDS011;34859;51.608;11.462;2022-10-18T04:21:25;9.50;;;8.55;;
49041;SDS011;34859;51.608;11.462;2022-10-18T04:24:09;8.63;;;8.00;;
49041;SDS011;34859;51.608;11.462;2022-10-18T04:26:53;11.38;;;8.52;;
49041;SDS011;34859;51.608;11.462;2022-10-18T04:29:37;9.43;;;8.70;;
49041;SDS011;34859;51.608;11.462;2022-10-18T04:32:21;10.50;;;9.60;;
49041;SDS011;34859;51.608;11.462;2022-10-18T04:35:07;11.52;;;10.32;;
49041;SDS011;34859;51.608;11.462;2022-10-18T04:37:53;9.85;;;9.05;;
49041;SDS011;34859;51.608;11.462;2022-10-18T04:40:37;9.25;;;8.40;;
49041;SDS011;34859;51.608;11.462;2022-10-18T04:43:21;9.15;;;8.40;;
49041;SDS011;34859;51.608;11.462;2022-10-18T04:46:05;9.13;;;8.43;;
49041;SDS011;34859;51.608;11.462;2022-10-18T04:48:49;9.67;;;8.93;;
49041;SDS011;34859;51.608;11.462;2022-10-18T04:51:33;9.63;;;8.93;;
49041;SDS011;34859;51.608;11.462;2022-10-18T04:54:17;12.15;;;11.05;;
49041;SDS011;34859;51.608;11.462;2022-10-18T04:57:02;9.95;;;9.10;;
49041;SDS011;34859;51.608;11.462;2022-10-18T05:02:30;9.90;;;9.15;;
49041;SDS011;34859;51.608;11.462;2022-10-18T05:05:15;9.90;;;9.10;;
49041;SDS011;34859;51.608;11.462;2022-10-18T05:07:59;9.68;;;8.82;;
49041;SDS011;34859;51.608;11.462;2022-10-18T05:10:44;10.52;;;9.77;;
49041;SDS011;34859;51.608;11.462;2022-10-18T05:13:29;10.82;;;10.02;;
49041;SDS011;34859;51.608;11.462;2022-10-18T05:16:14;11.85;;;10.80;;
49041;SDS011;34859;51.608;11.462;2022-10-18T05:18:58;12.23;;;11.13;;
49041;SDS011;34859;51.608;11.462;2022-10-18T05:21:42;12.13;;;11.13;;
49041;SDS011;34859;51.608;11.462;2022-10-18T05:24:26;12.50;;;11.20;;
49041;SDS011;34859;51.608;11.462;2022-10-18T05:27:11;20.48;;;11.23;;
49041;SDS011;34859;51.608;11.462;2022-10-18T05:29:55;10.60;;;9.75;;
49041;SDS011;34859;51.608;11.462;2022-10-18T05:32:39;12.48;;;10.75;;
49041;SDS011;34859;51.608;11.462;2022-10-18T05:35:23;11.25;;;10.25;;
49041;SDS011;34859;51.608;11.462;2022-10-18T05:38:07;12.67;;;11.37;;
49041;SDS011;34859;51.608;11.462;2022-10-18T05:40:51;12.23;;;11.30;;
49041;SDS011;34859;51.608;11.462;2022-10-18T05:43:35;12.10;;;10.93;;
49041;SDS011;34859;51.608;11.462;2022-10-18T05:46:20;11.75;;;10.57;;
49041;SDS011;34859;51.608;11.462;2022-10-18T05:49:04;11.10;;;10.10;;
49041;SDS011;34859;51.608;11.462;2022-10-18T05:51:48;12.35;;;10.02;;
49041;SDS011;34859;51.608;11.462;2022-10-18T05:54:32;12.45;;;11.13;;
49041;SDS011;34859;51.608;11.462;2022-10-18T05:57:16;12.05;;;11.05;;
49041;SDS011;34859;51.608;11.462;2022-10-18T06:00:00;13.63;;;11.20;;
49041;SDS011;34859;51.608;11.462;2022-10-18T06:02:42;11.77;;;10.68;;
49041;SDS011;34859;51.608;11.462;2022-10-18T06:05:26;12.50;;;11.40;;
49041;SDS011;34859;51.608;11.462;2022-10-18T06:08:11;12.20;;;11.13;;
49041;SDS011;34859;51.608;11.462;2022-10-18T06:10:55;11.10;;;10.20;;
49041;SDS011;34859;51.608;11.462;2022-10-18T06:13:40;13.90;;;12.07;;
49041;SDS011;34859;51.608;11.462;2022-10-18T06:16:26;11.95;;;10.95;;
49041;SDS011;34859;51.608;11.462;2022-10-18T06:19:10;14.25;;;12.10;;
49041;SDS011;34859;51.608;11.462;2022-10-18T06:21:54;12.87;;;11.60;;
49041;SDS011;34859;51.608;11.462;2022-10-18T06:24:38;13.10;;;11.93;;
49041;SDS011;34859;51.608;11.462;2022-10-18T06:27:23;12.43;;;11.23;;
49041;SDS011;34859;51.608;11.462;2022-10-18T06:30:07;12.20;;;10.95;;
49041;SDS011;34859;51.608;11.462;2022-10-18T06:35:36;12.45;;;11.35;;
49041;SDS011;34859;51.608;11.462;2022-10-18T06:38:21;11.98;;;10.82;;
49041;SDS011;34859;51.608;11.462;2022-10-18T06:41:05;11.97;;;10.80;;
49041;SDS011;34859;51.608;11.462;2022-10-18T06:43:50;13.80;;;10.75;;
49041;SDS011;34859;51.608;11.462;2022-10-18T06:46:36;12.85;;;11.77;;
49041;SDS011;34859;51.608;11.462;2022-10-18T06:49:20;11.98;;;10.88;;
49041;SDS011;34859;51.608;11.462;2022-10-18T06:54:50;12.43;;;10.90;;
49041;SDS011;34859;51.608;11.462;2022-10-18T06:57:35;11.40;;;10.40;;
49041;SDS011;34859;51.608;11.462;2022-10-18T07:00:19;11.93;;;10.53;;
49041;SDS011;34859;51.608;11.462;2022-10-18T07:03:00;11.23;;;10.27;;
49041;SDS011;34859;51.608;11.462;2022-10-18T07:05:44;11.93;;;10.77;;
49041;SDS011;34859;51.608;11.462;2022-10-18T07:08:28;10.37;;;9.47;;
49041;SDS011;34859;51.608;11.462;2022-10-18T07:11:17;10.77;;;9.68;;
49041;SDS011;34859;51.608;11.462;2022-10-18T07:14:06;8.38;;;7.70;;
49041;SDS011;34859;51.608;11.462;2022-10-18T07:16:50;10.38;;;7.85;;
49041;SDS011;34859;51.608;11.462;2022-10-18T07:19:34;9.77;;;8.98;;
49041;SDS011;34859;51.608;11.462;2022-10-18T07:22:18;10.07;;;9.27;;
49041;SDS011;34859;51.608;11.462;2022-10-18T07:25:05;11.60;;;10.30;;
49041;SDS011;34859;51.608;11.462;2022-10-18T07:27:50;11.90;;;10.77;;
49041;SDS011;34859;51.608;11.462;2022-10-18T07:30:34;12.95;;;11.32;;
49041;SDS011;34859;51.608;11.462;2022-10-18T07:33:18;12.77;;;11.57;;
49041;SDS011;34859;51.608;11.462;2022-10-18T07:38:48;11.63;;;10.52;;
49041;SDS011;34859;51.608;11.462;2022-10-18T07:41:34;12.68;;;11.48;;
49041;SDS011;34859;51.608;11.462;2022-10-18T07:44:19;13.35;;;11.32;;
49041;SDS011;34859;51.608;11.462;2022-10-18T07:47:03;13.13;;;11.88;;
49041;SDS011;34859;51.608;11.462;2022-10-18T07:49:47;13.85;;;12.27;;
49041;SDS011;34859;51.608;11.462;2022-10-18T07:52:31;12.50;;;11.30;;
49041;SDS011;34859;51.608;11.462;2022-10-18T07:55:15;13.15;;;10.85;;
49041;SDS011;34859;51.608;11.462;2022-10-18T07:57:59;12.23;;;11.05;;
49041;SDS011;34859;51.608;11.462;2022-10-18T08:00:43;13.45;;;12.20;;
49041;SDS011;34859;51.608;11.462;2022-10-18T08:03:28;12.20;;;11.07;;
49041;SDS011;34859;51.608;11.462;2022-10-18T08:06:13;13.10;;;11.50;;
49041;SDS011;34859;51.608;11.462;2022-10-18T08:09:00;12.65;;;11.48;;
49041;SDS011;34859;51.608;11.462;2022-10-18T08:11:45;12.68;;;11.57;;
49041;SDS011;34859;51.608;11.462;2022-10-18T08:14:29;12.88;;;11.73;;
49041;SDS011;34859;51.608;11.462;2022-10-18T08:17:13;12.43;;;11.10;;
49041;SDS011;34859;51.608;11.462;2022-10-18T08:19:57;14.05;;;11.88;;
49041;SDS011;34859;51.608;11.462;2022-10-18T08:22:41;14.45;;;12.95;;
49041;SDS011;34859;51.608;11.462;2022-10-18T08:25:25;15.18;;;13.77;;
49041;SDS011;34859;51.608;11.462;2022-10-18T08:28:09;14.27;;;12.35;;
49041;SDS011;34859;51.608;11.462;2022-10-18T08:30:56;13.52;;;12.07;;
49041;SDS011;34859;51.608;11.462;2022-10-18T08:33:45;13.40;;;12.02;;
49041;SDS011;34859;51.608;11.462;2022-10-18T08:36:30;12.63;;;11.38;;
49041;SDS011;34859;51.608;11.462;2022-10-18T08:39:14;12.60;;;11.32;;
49041;SDS011;34859;51.608;11.462;2022-10-18T08:42:14;13.15;;;11.50;;
49041;SDS011;34859;51.608;11.462;2022-10-18T08:45:02;12.23;;;11.18;;
49041;SDS011;34859;51.608;11.462;2022-10-18T08:47:47;11.68;;;10.15;;
49041;SDS011;34859;51.608;11.462;2022-10-18T08:50:35;12.85;;;10.77;;
49041;SDS011;34859;51.608;11.462;2022-10-18T08:53:43;11.98;;;10.88;;
49041;SDS011;34859;51.608;11.462;2022-10-18T08:56:35;11.25;;;10.05;;
49041;SDS011;34859;51.608;11.462;2022-10-18T08:59:21;10.88;;;9.80;;
49041;SDS011;34859;51.608;11.462;2022-10-18T09:04:59;9.50;;;8.60;;
49041;SDS011;34859;51.608;11.462;2022-10-18T09:07:57;10.50;;;9.57;;
49041;SDS011;34859;51.608;11.462;2022-10-18T09:26:29;9.05;;;8.35;;
49041;SDS011;34859;51.608;11.462;2022-10-18T09:35:42;7.72;;;6.97;;
49041;SDS011;34859;51.608;11.462;2022-10-18T09:38:32;7.80;;;7.07;;
49041;SDS011;34859;51.608;11.462;2022-10-18T09:47:20;6.43;;;5.93;;
49041;SDS011;34859;51.608;11.462;2022-10-18T09:50:21;6.80;;;6.40;;
49041;SDS011;34859;51.608;11.462;2022-10-18T09:59:01;6.90;;;6.40;;
49041;SDS011;34859;51.608;11.462;2022-10-18T10:01:46;7.05;;;6.55;;
49041;SDS011;34859;51.608;11.462;2022-10-18T10:04:30;7.20;;;6.70;;
49041;SDS011;34859;51.608;11.462;2022-10-18T10:07:18;6.70;;;6.10;;
49041;SDS011;34859;51.608;11.462;2022-10-18T10:10:07;6.75;;;6.15;;
49041;SDS011;34859;51.608;11.462;2022-10-18T10:13:18;6.50;;;6.10;;
49041;SDS011;34859;51.608;11.462;2022-10-18T10:16:06;5.57;;;5.28;;
49041;SDS011;34859;51.608;11.462;2022-10-18T10:18:53;5.50;;;5.07;;
49041;SDS011;34859;51.608;11.462;2022-10-18T10:21:38;5.47;;;5.18;;
49041;SDS011;34859;51.608;11.462;2022-10-18T10:24:23;5.80;;;5.03;;
49041;SDS011;34859;51.608;11.462;2022-10-18T10:27:38;3.90;;;3.70;;
49041;SDS011;34859;51.608;11.462;2022-10-18T10:30:30;4.00;;;3.80;;
49041;SDS011;34859;51.608;11.462;2022-10-18T10:36:16;5.70;;;5.20;;
49041;SDS011;34859;51.608;11.462;2022-10-18T10:39:10;4.68;;;2.50;;
49041;SDS011;34859;51.608;11.462;2022-10-18T10:41:56;3.40;;;3.15;;
49041;SDS011;34859;51.608;11.462;2022-10-18T10:44:47;3.15;;;2.58;;
49041;SDS011;34859;51.608;11.462;2022-10-18T10:47:37;3.20;;;3.00;;
49041;SDS011;34859;51.608;11.462;2022-10-18T10:50:26;3.22;;;2.42;;
49041;SDS011;34859;51.608;11.462;2022-10-18T10:56:51;3.28;;;2.97;;
49041;SDS011;34859;51.608;11.462;2022-10-18T10:59:43;3.58;;;2.95;;
49041;SDS011;34859;51.608;11.462;2022-10-18T11:02:34;4.20;;;3.90;;
49041;SDS011;34859;51.608;11.462;2022-10-18T11:05:25;2.63;;;2.50;;
49041;SDS011;34859;51.608;11.462;2022-10-18T11:08:23;3.10;;;2.80;;
49041;SDS011;34859;51.608;11.462;2022-10-18T11:11:24;3.05;;;2.83;;
49041;SDS011;34859;51.608;11.462;2022-10-18T11:14:20;3.35;;;2.70;;
49041;SDS011;34859;51.608;11.462;2022-10-18T11:17:20;3.10;;;2.72;;
49041;SDS011;34859;51.608;11.462;2022-10-18T11:37:37;2.33;;;2.22;;
49041;SDS011;34859;51.608;11.462;2022-10-18T11:41:36;2.60;;;2.40;;
49041;SDS011;34859;51.608;11.462;2022-10-18T11:47:31;2.65;;;2.55;;
49041;SDS011;34859;51.608;11.462;2022-10-18T11:50:41;3.22;;;2.80;;
49041;SDS011;34859;51.608;11.462;2022-10-18T11:59:44;3.90;;;3.60;;
49041;SDS011;34859;51.608;11.462;2022-10-18T12:02:44;3.42;;;3.22;;
49041;SDS011;34859;51.608;11.462;2022-10-18T12:05:46;3.40;;;3.13;;
49041;SDS011;34859;51.608;11.462;2022-10-18T12:08:33;4.63;;;3.20;;
49041;SDS011;34859;51.608;11.462;2022-10-18T12:11:31;2.90;;;2.70;;
49041;SDS011;34859;51.608;11.462;2022-10-18T12:14:24;3.17;;;2.60;;
49041;SDS011;34859;51.608;11.462;2022-10-18T12:17:16;3.60;;;3.33;;
49041;SDS011;34859;51.608;11.462;2022-10-18T12:26:19;2.28;;;2.17;;
49041;SDS011;34859;51.608;11.462;2022-10-18T12:32:02;3.40;;;3.20;;
49041;SDS011;34859;51.608;11.462;2022-10-18T12:34:52;3.15;;;3.00;;
49041;SDS011;34859;51.608;11.462;2022-10-18T12:37:49;3.55;;;3.35;;
49041;SDS011;34859;51.608;11.462;2022-10-18T12:40:47;2.83;;;2.63;;
49041;SDS011;34859;51.608;11.462;2022-10-18T12:43:34;4.88;;;4.47;;
49041;SDS011;34859;51.608;11.462;2022-10-18T12:46:21;5.90;;;4.25;;
49041;SDS011;34859;51.608;11.462;2022-10-18T12:49:08;4.00;;;3.70;;
49041;SDS011;34859;51.608;11.462;2022-10-18T12:51:59;4.85;;;4.45;;
49041;SDS011;34859;51.608;11.462;2022-10-18T13:06:08;3.40;;;3.28;;
49041;SDS011;34859;51.608;11.462;2022-10-18T13:09:08;4.25;;;3.88;;
49041;SDS011;34859;51.608;11.462;2022-10-18T13:17:45;4.00;;;3.47;;
49041;SDS011;34859;51.608;11.462;2022-10-18T13:20:55;3.47;;;3.28;;
49041;SDS011;34859;51.608;11.462;2022-10-18T13:36:27;3.13;;;2.92;;
49041;SDS011;34859;51.608;11.462;2022-10-18T13:39:17;3.47;;;3.38;;
49041;SDS011;34859;51.608;11.462;2022-10-18T13:54:21;3.40;;;3.20;;
49041;SDS011;34859;51.608;11.462;2022-10-18T14:03:37;5.72;;;5.22;;
49041;SDS011;34859;51.608;11.462;2022-10-18T14:06:44;5.80;;;5.30;;
49041;SDS011;34859;51.608;11.462;2022-10-18T14:09:33;7.38;;;6.63;;
49041;SDS011;34859;51.608;11.462;2022-10-18T14:15:33;7.53;;;6.93;;
49041;SDS011;34859;51.608;11.462;2022-10-18T14:18:25;6.82;;;6.32;;
49041;SDS011;34859;51.608;11.462;2022-10-18T14:21:20;7.07;;;6.47;;
49041;SDS011;34859;51.608;11.462;2022-10-18T14:24:16;7.13;;;6.35;;
49041;SDS011;34859;51.608;11.462;2022-10-18T14:27:09;6.80;;;6.03;;
49041;SDS011;34859;51.608;11.462;2022-10-18T14:30:09;8.60;;;6.93;;
49041;SDS011;34859;51.608;11.462;2022-10-18T14:32:56;7.10;;;5.53;;
49041;SDS011;34859;51.608;11.462;2022-10-18T14:35:42;5.95;;;5.55;;
49041;SDS011;34859;51.608;11.462;2022-10-18T14:38:26;5.95;;;5.55;;
49041;SDS011;34859;51.608;11.462;2022-10-18T14:41:12;6.65;;;5.28;;
49041;SDS011;34859;51.608;11.462;2022-10-18T14:44:11;10.18;;;6.43;;
49041;SDS011;34859;51.608;11.462;2022-10-18T14:47:14;6.85;;;5.65;;
49041;SDS011;34859;51.608;11.462;2022-10-18T14:50:15;6.45;;;5.82;;
49041;SDS011;34859;51.608;11.462;2022-10-18T14:53:10;7.18;;;5.70;;
49041;SDS011;34859;51.608;11.462;2022-10-18T14:55:59;5.93;;;5.43;;
49041;SDS011;34859;51.608;11.462;2022-10-18T14:58:45;6.15;;;5.63;;
49041;SDS011;34859;51.608;11.462;2022-10-18T15:01:30;7.72;;;5.63;;
49041;SDS011;34859;51.608;11.462;2022-10-18T15:04:15;8.07;;;5.20;;
49041;SDS011;34859;51.608;11.462;2022-10-18T15:06:59;6.90;;;5.82;;
49041;SDS011;34859;51.608;11.462;2022-10-18T15:09:48;6.60;;;5.90;;
49041;SDS011;34859;51.608;11.462;2022-10-18T15:12:33;6.30;;;5.78;;
49041;SDS011;34859;51.608;11.462;2022-10-18T15:15:19;5.97;;;5.05;;
49041;SDS011;34859;51.608;11.462;2022-10-18T15:18:20;7.30;;;6.22;;
49041;SDS011;34859;51.608;11.462;2022-10-18T15:21:19;6.90;;;5.85;;
49041;SDS011;34859;51.608;11.462;2022-10-18T15:24:25;7.45;;;5.72;;
49041;SDS011;34859;51.608;11.462;2022-10-18T15:30:23;6.55;;;5.95;;
49041;SDS011;34859;51.608;11.462;2022-10-18T15:33:21;6.63;;;6.07;;
49041;SDS011;34859;51.608;11.462;2022-10-18T15:36:24;7.28;;;6.43;;
49041;SDS011;34859;51.608;11.462;2022-10-18T15:39:14;7.07;;;6.43;;
49041;SDS011;34859;51.608;11.462;2022-10-18T15:42:01;7.88;;;7.10;;
49041;SDS011;34859;51.608;11.462;2022-10-18T15:44:47;8.23;;;7.63;;
49041;SDS011;34859;51.608;11.462;2022-10-18T15:47:33;8.60;;;7.80;;
49041;SDS011;34859;51.608;11.462;2022-10-18T15:50:24;7.50;;;6.57;;
49041;SDS011;34859;51.608;11.462;2022-10-18T15:53:22;11.70;;;6.72;;
49041;SDS011;34859;51.608;11.462;2022-10-18T15:56:32;8.48;;;7.68;;
49041;SDS011;34859;51.608;11.462;2022-10-18T15:59:23;7.50;;;6.80;;
49041;SDS011;34859;51.608;11.462;2022-10-18T16:02:11;7.15;;;6.60;;
49041;SDS011;34859;51.608;11.462;2022-10-18T16:05:00;7.13;;;6.72;;
49041;SDS011;34859;51.608;11.462;2022-10-18T16:07:50;6.97;;;6.57;;
49041;SDS011;34859;51.608;11.462;2022-10-18T16:10:35;6.85;;;6.25;;
49041;SDS011;34859;51.608;11.462;2022-10-18T16:13:20;6.72;;;6.32;;
49041;SDS011;34859;51.608;11.462;2022-10-18T16:16:05;7.22;;;6.72;;
49041;SDS011;34859;51.608;11.462;2022-10-18T16:18:50;7.78;;;7.28;;
49041;SDS011;34859;51.608;11.462;2022-10-18T16:21:33;8.55;;;7.95;;
49041;SDS011;34859;51.608;11.462;2022-10-18T16:24:20;15.40;;;13.85;;
49041;SDS011;34859;51.608;11.462;2022-10-18T16:27:05;16.67;;;13.82;;
49041;SDS011;34859;51.608;11.462;2022-10-18T16:29:50;24.77;;;16.85;;
49041;SDS011;34859;51.608;11.462;2022-10-18T16:32:34;15.47;;;11.53;;
49041;SDS011;34859;51.608;11.462;2022-10-18T16:35:18;10.17;;;9.27;;
49041;SDS011;34859;51.608;11.462;2022-10-18T16:38:02;9.15;;;8.25;;
49041;SDS011;34859;51.608;11.462;2022-10-18T16:40:47;8.65;;;7.95;;
49041;SDS011;34859;51.608;11.462;2022-10-18T16:43:32;8.55;;;7.80;;
49041;SDS011;34859;51.608;11.462;2022-10-18T16:46:22;8.20;;;7.63;;
49041;SDS011;34859;51.608;11.462;2022-10-18T16:49:20;9.27;;;8.57;;
49041;SDS011;34859;51.608;11.462;2022-10-18T16:52:06;10.82;;;9.23;;
49041;SDS011;34859;51.608;11.462;2022-10-18T16:54:50;9.93;;;8.93;;
49041;SDS011;34859;51.608;11.462;2022-10-18T16:57:34;10.90;;;9.82;;
49041;SDS011;34859;51.608;11.462;2022-10-18T17:00:20;11.10;;;9.23;;
49041;SDS011;34859;51.608;11.462;2022-10-18T17:03:05;9.57;;;8.68;;
49041;SDS011;34859;51.608;11.462;2022-10-18T17:05:51;10.10;;;9.38;;
49041;SDS011;34859;51.608;11.462;2022-10-18T17:08:35;11.57;;;10.13;;
49041;SDS011;34859;51.608;11.462;2022-10-18T17:11:20;10.83;;;9.57;;
49041;SDS011;34859;51.608;11.462;2022-10-18T17:14:05;12.05;;;10.98;;
49041;SDS011;34859;51.608;11.462;2022-10-18T17:16:50;11.45;;;10.35;;
49041;SDS011;34859;51.608;11.462;2022-10-18T17:19:34;9.93;;;9.10;;
49041;SDS011;34859;51.608;11.462;2022-10-18T17:22:18;12.32;;;10.13;;
49041;SDS011;34859;51.608;11.462;2022-10-18T17:25:02;12.38;;;11.07;;
49041;SDS011;34859;51.608;11.462;2022-10-18T17:27:47;19.63;;;14.07;;
49041;SDS011;34859;51.608;11.462;2022-10-18T17:30:31;16.67;;;14.90;;
49041;SDS011;34859;51.608;11.462;2022-10-18T17:36:00;17.52;;;15.77;;
49041;SDS011;34859;51.608;11.462;2022-10-18T17:38:48;16.15;;;14.57;;
49041;SDS011;34859;51.608;11.462;2022-10-18T17:41:33;15.65;;;14.00;;
49041;SDS011;34859;51.608;11.462;2022-10-18T17:44:17;12.90;;;11.85;;
49041;SDS011;34859;51.608;11.462;2022-10-18T17:47:02;11.47;;;10.20;;
49041;SDS011;34859;51.608;11.462;2022-10-18T17:49:46;12.77;;;11.73;;
49041;SDS011;34859;51.608;11.462;2022-10-18T17:52:30;12.15;;;11.20;;
49041;SDS011;34859;51.608;11.462;2022-10-18T17:55:15;16.30;;;13.77;;
49041;SDS011;34859;51.608;11.462;2022-10-18T18:00:44;12.38;;;11.48;;
49041;SDS011;34859;51.608;11.462;2022-10-18T18:03:28;12.50;;;11.45;;
49041;SDS011;34859;51.608;11.462;2022-10-18T18:06:17;11.98;;;10.85;;
49041;SDS011;34859;51.608;11.462;2022-10-18T18:09:04;11.55;;;10.00;;
49041;SDS011;34859;51.608;11.462;2022-10-18T18:11:51;20.33;;;11.50;;
49041;SDS011;34859;51.608;11.462;2022-10-18T18:14:36;9.98;;;9.23;;
49041;SDS011;34859;51.608;11.462;2022-10-18T18:17:20;10.63;;;9.77;;
49041;SDS011;34859;51.608;11.462;2022-10-18T18:20:05;11.97;;;10.70;;
49041;SDS011;34859;51.608;11.462;2022-10-18T18:22:49;12.35;;;11.05;;
49041;SDS011;34859;51.608;11.462;2022-10-18T18:25:34;9.93;;;9.20;;
49041;SDS011;34859;51.608;11.462;2022-10-18T18:28:18;15.57;;;11.47;;
49041;SDS011;34859;51.608;11.462;2022-10-18T18:31:06;11.60;;;10.63;;
49041;SDS011;34859;51.608;11.462;2022-10-18T18:33:53;16.17;;;10.07;;
49041;SDS011;34859;51.608;11.462;2022-10-18T18:36:39;10.70;;;9.80;;
49041;SDS011;34859;51.608;11.462;2022-10-18T18:39:24;10.85;;;9.93;;
49041;SDS011;34859;51.608;11.462;2022-10-18T18:42:11;10.55;;;9.65;;
49041;SDS011;34859;51.608;11.462;2022-10-18T18:44:55;10.98;;;10.07;;
49041;SDS011;34859;51.608;11.462;2022-10-18T18:47:40;14.50;;;13.07;;
49041;SDS011;34859;51.608;11.462;2022-10-18T18:50:24;13.45;;;12.23;;
49041;SDS011;34859;51.608;11.462;2022-10-18T18:53:08;14.55;;;13.07;;
49041;SDS011;34859;51.608;11.462;2022-10-18T18:55:52;13.40;;;11.48;;
49041;SDS011;34859;51.608;11.462;2022-10-18T18:58:37;12.73;;;10.90;;
49041;SDS011;34859;51.608;11.462;2022-10-18T19:01:23;11.90;;;10.80;;
49041;SDS011;34859;51.608;11.462;2022-10-18T19:04:09;12.63;;;11.32;;
49041;SDS011;34859;51.608;11.462;2022-10-18T19:06:53;12.98;;;11.80;;
49041;SDS011;34859;51.608;11.462;2022-10-18T19:09:38;11.50;;;10.50;;
49041;SDS011;34859;51.608;11.462;2022-10-18T19:12:24;10.20;;;9.30;;
49041;SDS011;34859;51.608;11.462;2022-10-18T19:15:09;15.93;;;13.20;;
49041;SDS011;34859;51.608;11.462;2022-10-18T19:17:54;15.55;;;13.88;;
49041;SDS011;34859;51.608;11.462;2022-10-18T19:20:39;32.25;;;24.40;;